Gresham, South Carolina
Current Conditions -  °F | °C
As of 11:15 AM on Sunday 23 Nov 2014 (Local Time) from KMAO Reporting Station
Moderate Rain Moderate Rain  
Wind Chill: 57°   Ceiling: 7000
Heat Index: 57°   Visibility: 7mi
Dew Point: 57°   Wind: 9mph
Humidity: 100%   Direction: 100°E
Pressure: 30.13"   Gusts: NA
Location:  33.93°N, 79.41°W
Report Text: KMAO 231615Z AUTO 10008KT 7SM RA SCT009 SCT034 BKN070 14/14 A3013 RMK AO2 P0001
Loading
Personal Weather Stations






























Interactive Weather Map New forecast layout! Learn more

10-Day Weather Forecast

Advertisements
Track Severe Weather on mobile